createdAt,value
2023-04-02T00:00:11.960Z,101213.00
2023-04-02T00:03:03.804Z,101210.59
2023-04-02T00:05:51.117Z,101214.25
2023-04-02T00:08:23.450Z,101225.53
2023-04-02T00:10:55.770Z,101227.63
2023-04-02T00:13:43.538Z,101227.75
2023-04-02T00:16:14.588Z,101226.16
2023-04-02T00:18:46.540Z,101231.44
2023-04-02T00:21:29.893Z,101227.75
2023-04-02T00:24:00.430Z,101240.00
2023-04-02T00:26:32.010Z,101241.59
2023-04-02T00:29:00.973Z,101251.13
2023-04-02T00:31:28.060Z,101247.63
2023-04-02T00:33:55.932Z,101266.69
2023-04-02T00:36:26.634Z,101260.16
2023-04-02T00:38:55.299Z,101267.97
2023-04-02T00:41:27.184Z,101272.56
2023-04-02T00:43:54.670Z,101272.91
2023-04-02T00:46:27.628Z,101273.69
2023-04-02T00:49:10.818Z,101295.59
2023-04-02T00:51:44.460Z,101290.66
2023-04-02T00:54:15.933Z,101300.84
2023-04-02T00:56:45.209Z,101303.38
2023-04-02T00:59:33.681Z,101311.03
2023-04-02T01:02:17.326Z,101316.28
2023-04-02T01:04:54.136Z,101312.91
2023-04-02T01:07:35.832Z,101326.28
2023-04-02T01:10:29.987Z,101325.63
2023-04-02T01:13:13.670Z,101332.59
2023-04-02T01:15:52.400Z,101348.50
2023-04-02T01:18:26.854Z,101341.19
2023-04-02T01:21:08.697Z,101343.56
2023-04-02T01:23:37.874Z,101341.03
2023-04-02T01:26:44.534Z,101345.81
2023-04-02T01:29:14.106Z,101344.34
2023-04-02T01:31:41.801Z,101354.19
2023-04-02T01:34:11.847Z,101350.56
2023-04-02T01:37:02.709Z,101359.91
2023-04-02T01:39:52.240Z,101363.88
2023-04-02T01:42:41.654Z,101359.91
2023-04-02T01:45:12.418Z,101378.03
2023-04-02T01:47:39.660Z,101382.47
2023-04-02T01:50:32.007Z,101387.13
2023-04-02T01:53:02.242Z,101388.19
2023-04-02T01:55:34.155Z,101393.41
2023-04-02T01:58:02.134Z,101403.41
2023-04-02T02:00:30.347Z,101404.84
2023-04-02T02:02:56.996Z,101406.47
2023-04-02T02:05:23.929Z,101421.50
2023-04-02T02:07:52.143Z,101423.53
2023-04-02T02:10:26.449Z,101415.81
2023-04-02T02:12:52.934Z,101424.53
2023-04-02T02:15:23.090Z,101429.09
2023-04-02T02:17:50.777Z,101430.38
2023-04-02T02:20:17.864Z,101440.84
2023-04-02T02:22:47.474Z,101442.50
2023-04-02T02:25:21.244Z,101444.88
2023-04-02T02:27:58.346Z,101454.31
2023-04-02T02:30:39.212Z,101463.16
2023-04-02T02:33:18.005Z,101476.16
2023-04-02T02:35:52.757Z,101465.69
2023-04-02T02:38:28.391Z,101467.69
2023-04-02T02:41:01.347Z,101473.78
2023-04-02T02:43:28.335Z,101477.56
2023-04-02T02:45:56.777Z,101484.00
2023-04-02T02:48:29.364Z,101489.28
2023-04-02T02:50:56.842Z,101489.44
2023-04-02T02:53:24.640Z,101501.19
2023-04-02T02:55:58.382Z,101502.09
2023-04-02T02:58:28.106Z,101510.19
2023-04-02T03:00:54.796Z,101517.53
2023-04-02T03:03:24.839Z,101521.56
2023-04-02T03:05:58.117Z,101513.88
2023-04-02T03:08:32.487Z,101518.00
2023-04-02T03:11:17.633Z,101528.34
2023-04-02T03:13:48.774Z,101532.47
2023-04-02T03:16:39.183Z,101545.47
2023-04-02T03:19:28.220Z,101551.34
2023-04-02T03:21:54.645Z,101554.94
2023-04-02T03:24:33.117Z,101560.47
2023-04-02T03:27:08.906Z,101567.41
2023-04-02T03:29:41.459Z,101565.72
2023-04-02T03:32:20.423Z,101575.22
2023-04-02T03:34:52.215Z,101588.59
2023-04-02T03:37:23.847Z,101594.69
2023-04-02T03:40:11.321Z,101592.69
2023-04-02T03:43:10.759Z,101603.88
2023-04-02T03:45:41.358Z,101615.97
2023-04-02T03:48:16.145Z,101619.94
2023-04-02T03:50:51.276Z,101625.06
2023-04-02T03:53:17.997Z,101627.47
2023-04-02T03:55:44.561Z,101637.06
2023-04-02T03:58:17.930Z,101630.88
2023-04-02T04:01:28.589Z,101633.25
2023-04-02T04:04:02.995Z,101639.56
2023-04-02T04:06:32.150Z,101651.25
2023-04-02T04:09:40.774Z,101655.44
2023-04-02T04:12:35.257Z,101660.34
2023-04-02T04:15:33.747Z,101673.34
2023-04-02T04:18:10.490Z,101679.22
2023-04-02T04:20:57.061Z,101691.78
2023-04-02T04:23:36.698Z,101696.59
2023-04-02T04:26:19.526Z,101697.09
2023-04-02T04:29:31.642Z,101699.41
2023-04-02T04:32:16.671Z,101713.47
2023-04-02T04:34:51.429Z,101715.47
2023-04-02T04:37:25.245Z,101716.78
2023-04-02T04:40:03.093Z,101727.75
2023-04-02T04:42:34.865Z,101732.34
2023-04-02T04:45:13.639Z,101741.84
2023-04-02T04:47:47.796Z,101752.94
2023-04-02T04:50:32.973Z,101752.19
2023-04-02T04:53:06.455Z,101764.69
2023-04-02T04:55:42.859Z,101764.88
2023-04-02T04:58:22.018Z,101766.72
2023-04-02T05:00:51.427Z,101772.38
2023-04-02T05:03:46.860Z,101780.06
2023-04-02T05:06:45.633Z,101781.53
2023-04-02T05:09:19.947Z,101802.56
2023-04-02T05:11:53.645Z,101800.13
2023-04-02T05:14:33.650Z,101810.97
2023-04-02T05:17:12.997Z,101809.53
2023-04-02T05:19:48.484Z,101818.91
2023-04-02T05:22:28.125Z,101821.09
2023-04-02T05:25:02.615Z,101824.16
2023-04-02T05:27:40.632Z,101833.34
2023-04-02T05:30:25.438Z,101834.16
2023-04-02T05:33:00.500Z,101849.50
2023-04-02T05:35:32.830Z,101846.03
2023-04-02T05:38:01.855Z,101851.19
2023-04-02T05:40:50.840Z,101861.38
2023-04-02T05:43:19.149Z,101865.97
2023-04-02T05:45:53.270Z,101869.16
2023-04-02T05:48:39.715Z,101874.56
2023-04-02T05:51:11.964Z,101882.44
2023-04-02T05:53:45.347Z,101880.38
2023-04-02T05:56:32.050Z,101896.75
2023-04-02T05:59:25.627Z,101898.66
2023-04-02T06:02:16.941Z,101898.09
2023-04-02T06:04:52.328Z,101911.81
2023-04-02T06:07:23.405Z,101924.28
2023-04-02T06:10:05.736Z,101926.47
2023-04-02T06:12:47.019Z,101941.75
2023-04-02T06:15:18.979Z,101948.22
2023-04-02T06:17:52.917Z,101958.44
2023-04-02T06:20:20.918Z,101961.13
2023-04-02T06:22:52.948Z,101972.88
2023-04-02T06:25:30.601Z,101973.84
2023-04-02T06:27:59.760Z,101975.56
2023-04-02T06:30:32.675Z,101984.66
2023-04-02T06:32:59.262Z,101989.25
2023-04-02T06:35:25.790Z,101993.56
2023-04-02T06:37:54.807Z,101993.63
2023-04-02T06:40:39.519Z,101994.53
2023-04-02T06:43:26.289Z,102007.69
2023-04-02T06:45:57.353Z,102009.88
2023-04-02T06:48:25.379Z,102020.56
2023-04-02T06:51:07.103Z,102017.47
2023-04-02T06:53:37.535Z,102019.81
2023-04-02T06:56:36.306Z,102032.94
2023-04-02T06:59:04.703Z,102040.78
2023-04-02T07:01:36.237Z,102040.69
2023-04-02T07:04:03.007Z,102044.59
2023-04-02T07:06:29.543Z,102055.31
2023-04-02T07:08:56.236Z,102065.44
2023-04-02T07:11:23.123Z,102076.75
2023-04-02T07:13:50.104Z,102080.44
2023-04-02T07:16:22.809Z,102080.63
2023-04-02T07:18:49.695Z,102093.56
2023-04-02T07:21:16.180Z,102092.44
2023-04-02T07:23:42.861Z,102101.03
2023-04-02T07:26:14.182Z,102111.25
2023-04-02T07:28:40.833Z,102116.13
2023-04-02T07:31:24.314Z,102128.97
2023-04-02T07:33:52.632Z,102121.31
2023-04-02T07:36:23.976Z,102124.03
2023-04-02T07:38:50.749Z,102132.91
2023-04-02T07:41:19.531Z,102139.66
2023-04-02T07:43:46.090Z,102143.91
2023-04-02T07:46:15.177Z,102140.47
2023-04-02T07:48:41.764Z,102139.31
2023-04-02T07:51:22.963Z,102149.91
2023-04-02T07:53:51.050Z,102157.53
2023-04-02T07:56:21.070Z,102165.69
2023-04-02T07:58:47.791Z,102159.00
2023-04-02T08:01:26.264Z,102167.28
2023-04-02T08:03:54.578Z,102168.50
2023-04-02T08:06:21.616Z,102165.47
2023-04-02T08:08:48.342Z,102167.69
2023-04-02T08:11:15.122Z,102174.28
2023-04-02T08:13:43.853Z,102176.41
2023-04-02T08:16:10.664Z,102177.59
2023-04-02T08:18:37.232Z,102183.13
2023-04-02T08:21:07.916Z,102189.59
2023-04-02T08:23:35.779Z,102190.34
2023-04-02T08:26:02.589Z,102196.22
2023-04-02T08:28:29.082Z,102202.44
2023-04-02T08:30:55.983Z,102201.63
2023-04-02T08:33:22.743Z,102222.19
2023-04-02T08:35:50.544Z,102219.19
2023-04-02T08:38:19.102Z,102219.28
2023-04-02T08:40:49.822Z,102236.09
2023-04-02T08:43:23.590Z,102235.53
2023-04-02T08:46:19.154Z,102245.97
2023-04-02T08:48:55.284Z,102239.84
2023-04-02T08:51:26.106Z,102243.13
2023-04-02T08:54:21.754Z,102253.09
2023-04-02T08:57:04.180Z,102256.03
2023-04-02T08:59:33.300Z,102262.78
2023-04-02T09:02:02.682Z,102261.63
2023-04-02T09:04:29.553Z,102267.44
2023-04-02T09:06:57.259Z,102277.19
2023-04-02T09:09:25.071Z,102284.00
2023-04-02T09:12:00.788Z,102283.44
2023-04-02T09:14:43.523Z,102293.00
2023-04-02T09:17:36.959Z,102296.72
2023-04-02T09:20:26.697Z,102295.53
2023-04-02T09:22:54.726Z,102311.22
2023-04-02T09:25:26.879Z,102320.25
2023-04-02T09:27:55.654Z,102333.47
2023-04-02T09:30:32.783Z,102336.19
2023-04-02T09:33:02.424Z,102340.69
2023-04-02T09:35:32.517Z,102349.28
2023-04-02T09:38:07.976Z,102348.00
2023-04-02T09:40:54.766Z,102353.72
2023-04-02T09:43:24.060Z,102349.84
2023-04-02T09:46:04.010Z,102352.00
2023-04-02T09:48:53.212Z,102347.78
2023-04-02T09:51:22.061Z,102350.09
2023-04-02T09:54:03.580Z,102362.56
2023-04-02T09:56:35.467Z,102369.03
2023-04-02T09:59:14.080Z,102356.81
2023-04-02T10:01:57.094Z,102371.31
2023-04-02T10:04:44.653Z,102373.84
2023-04-02T10:07:34.681Z,102382.50
2023-04-02T10:10:12.839Z,102389.50
2023-04-02T10:12:42.411Z,102387.88
2023-04-02T10:15:18.459Z,102396.84
2023-04-02T10:17:50.035Z,102397.56
2023-04-02T10:20:23.276Z,102396.13
2023-04-02T10:22:50.176Z,102392.97
2023-04-02T10:25:20.266Z,102388.81
2023-04-02T10:28:22.145Z,102394.13
2023-04-02T10:31:08.522Z,102388.78
2023-04-02T10:33:39.517Z,102390.16
2023-04-02T10:36:43.408Z,102392.31
2023-04-02T10:39:20.017Z,102403.63
2023-04-02T10:41:52.993Z,102399.47
2023-04-02T10:44:41.739Z,102397.66
2023-04-02T10:47:32.230Z,102404.31
2023-04-02T10:50:19.804Z,102398.22
2023-04-02T10:52:56.531Z,102405.63
2023-04-02T10:55:32.081Z,102403.50
2023-04-02T10:58:07.239Z,102397.91
2023-04-02T11:00:41.480Z,102410.34
2023-04-02T11:03:15.090Z,102414.16
2023-04-02T11:05:49.558Z,102416.91
2023-04-02T11:08:21.482Z,102419.00
2023-04-02T11:10:57.943Z,102420.69
2023-04-02T11:13:36.537Z,102421.31
2023-04-02T11:16:03.818Z,102425.41
2023-04-02T11:18:35.897Z,102423.31
2023-04-02T11:21:05.445Z,102418.91
2023-04-02T11:23:35.391Z,102423.00
2023-04-02T11:26:47.535Z,102434.75
2023-04-02T11:29:16.309Z,102434.97
2023-04-02T11:31:44.681Z,102430.53
2023-04-02T11:34:14.217Z,102440.94
2023-04-02T11:36:53.001Z,102438.94
2023-04-02T11:39:55.257Z,102449.41
2023-04-02T11:42:24.948Z,102447.78
2023-04-02T11:44:52.822Z,102458.56
2023-04-02T11:47:24.947Z,102460.69
2023-04-02T11:49:54.637Z,102463.47
2023-04-02T11:52:52.064Z,102458.53
2023-04-02T11:55:24.472Z,102456.63
2023-04-02T11:58:02.111Z,102463.72
2023-04-02T12:00:39.981Z,102460.88
2023-04-02T12:03:29.756Z,102454.13
2023-04-02T12:06:10.672Z,102454.59
2023-04-02T12:09:05.536Z,102473.81
2023-04-02T12:11:38.674Z,102466.84
2023-04-02T12:14:33.247Z,102488.41
2023-04-02T12:17:00.206Z,102497.38
2023-04-02T12:19:27.698Z,102491.34
2023-04-02T12:21:54.395Z,102480.03
2023-04-02T12:24:24.063Z,102498.88
2023-04-02T12:27:22.490Z,102489.81
2023-04-02T12:29:51.069Z,102488.25
2023-04-02T12:32:29.952Z,102497.56
2023-04-02T12:35:04.625Z,102494.06
2023-04-02T12:37:31.481Z,102497.28
2023-04-02T12:40:16.806Z,102497.44
2023-04-02T12:42:43.338Z,102507.88
2023-04-02T12:45:33.935Z,102503.53
2023-04-02T12:48:04.048Z,102504.03
2023-04-02T12:50:31.163Z,102507.25
2023-04-02T12:52:59.020Z,102505.75
2023-04-02T12:55:27.110Z,102501.63
2023-04-02T12:57:58.096Z,102510.28
2023-04-02T13:00:27.412Z,102503.53
2023-04-02T13:03:08.692Z,102512.50
2023-04-02T13:05:44.553Z,102510.22
2023-04-02T13:08:27.739Z,102510.16
2023-04-02T13:11:00.655Z,102511.88
2023-04-02T13:13:35.592Z,102523.13
2023-04-02T13:16:10.478Z,102517.69
2023-04-02T13:18:38.333Z,102507.09
2023-04-02T13:21:17.149Z,102519.06
2023-04-02T13:23:44.633Z,102513.13
2023-04-02T13:26:11.092Z,102517.94
2023-04-02T13:28:38.204Z,102521.63
2023-04-02T13:31:04.782Z,102517.78
2023-04-02T13:33:31.738Z,102500.66
2023-04-02T13:35:58.281Z,102512.91
2023-04-02T13:38:24.810Z,102516.41
2023-04-02T13:40:51.754Z,102510.81
2023-04-02T13:43:20.606Z,102510.31
2023-04-02T13:45:54.295Z,102512.53
2023-04-02T13:48:24.585Z,102518.03
2023-04-02T13:50:52.730Z,102520.50
2023-04-02T13:53:27.588Z,102520.78
2023-04-02T13:55:54.145Z,102522.31
2023-04-02T13:58:20.947Z,102525.94
2023-04-02T14:00:47.927Z,102526.28
2023-04-02T14:03:22.037Z,102523.78
2023-04-02T14:06:08.445Z,102539.16
2023-04-02T14:09:04.225Z,102537.63
2023-04-02T14:11:46.863Z,102554.13
2023-04-02T14:14:38.150Z,102547.84
2023-04-02T14:17:23.363Z,102533.69
2023-04-02T14:20:03.101Z,102546.13
2023-04-02T14:22:44.892Z,102549.56
2023-04-02T14:25:17.372Z,102544.19
2023-04-02T14:28:22.259Z,102546.19
2023-04-02T14:31:03.764Z,102555.16
2023-04-02T14:33:36.073Z,102562.13
2023-04-02T14:36:35.065Z,102558.78
2023-04-02T14:39:30.730Z,102556.41
2023-04-02T14:42:06.679Z,102561.31
2023-04-02T14:44:40.374Z,102566.78
2023-04-02T14:47:23.263Z,102564.41
2023-04-02T14:49:54.943Z,102568.16
2023-04-02T14:52:23.924Z,102571.88
2023-04-02T14:55:03.289Z,102570.25
2023-04-02T14:57:33.303Z,102572.06
2023-04-02T15:00:33.984Z,102571.06
2023-04-02T15:03:17.028Z,102573.47
2023-04-02T15:06:06.074Z,102572.94
2023-04-02T15:08:42.996Z,102583.38
2023-04-02T15:11:33.875Z,102585.72
2023-04-02T15:14:06.841Z,102594.03
2023-04-02T15:16:36.332Z,102587.59
2023-04-02T15:19:10.205Z,102586.88
2023-04-02T15:22:27.736Z,102593.97
2023-04-02T15:25:13.946Z,102598.97
2023-04-02T15:27:50.014Z,102593.59
2023-04-02T15:30:24.913Z,102602.59
2023-04-02T15:32:54.383Z,102600.81
2023-04-02T15:35:31.476Z,102598.84
2023-04-02T15:38:09.880Z,102599.69
2023-04-02T15:40:54.768Z,102604.03
2023-04-02T15:43:44.797Z,102610.59
2023-04-02T15:46:20.134Z,102600.22
2023-04-02T15:49:05.058Z,102596.25
2023-04-02T15:52:01.355Z,102606.97
2023-04-02T15:54:37.112Z,102598.44
2023-04-02T15:57:17.642Z,102596.94
2023-04-02T16:00:09.112Z,102597.59
2023-04-02T16:02:38.598Z,102604.56
2023-04-02T16:05:23.237Z,102605.41
2023-04-02T16:07:58.643Z,102615.44
2023-04-02T16:10:41.298Z,102617.72
2023-04-02T16:13:26.529Z,102620.75
2023-04-02T16:16:12.348Z,102620.72
2023-04-02T16:18:47.326Z,102635.19
2023-04-02T16:21:23.076Z,102631.13
2023-04-02T16:23:50.509Z,102633.44
2023-04-02T16:26:34.501Z,102635.13
2023-04-02T16:29:47.052Z,102646.47
2023-04-02T16:32:31.718Z,102634.50
2023-04-02T16:37:58.092Z,102643.91
2023-04-02T16:40:27.251Z,102652.00
2023-04-02T16:43:02.952Z,102656.44
2023-04-02T16:45:35.241Z,102662.09
2023-04-02T16:48:19.872Z,102654.38
2023-04-02T16:50:55.584Z,102671.91
2023-04-02T16:53:33.941Z,102671.81
2023-04-02T16:56:19.020Z,102665.00
2023-04-02T16:58:54.730Z,102670.59
2023-04-02T17:01:43.316Z,102683.09
2023-04-02T17:04:25.938Z,102685.84
2023-04-02T17:07:16.869Z,102698.38
2023-04-02T17:09:52.088Z,102694.63
2023-04-02T17:12:29.993Z,102699.63
2023-04-02T17:17:57.122Z,102703.72
2023-04-02T17:20:25.956Z,102711.28
2023-04-02T17:22:54.470Z,102711.28
2023-04-02T17:25:31.668Z,102717.88
2023-04-02T17:27:58.136Z,102725.06
2023-04-02T17:30:43.202Z,102724.63
2023-04-02T17:33:18.206Z,102719.91
2023-04-02T17:36:04.499Z,102717.00
2023-04-02T17:38:49.980Z,102731.25
2023-04-02T17:41:30.919Z,102720.63
2023-04-02T17:44:11.480Z,102727.25
2023-04-02T17:47:01.895Z,102747.44
2023-04-02T17:50:24.572Z,102744.41
2023-04-02T17:53:00.490Z,102751.78
2023-04-02T17:55:34.163Z,102752.47
2023-04-02T17:58:18.888Z,102759.34
2023-04-02T18:01:04.761Z,102761.63
2023-04-02T18:03:52.117Z,102769.38
2023-04-02T18:06:28.154Z,102770.03
2023-04-02T18:09:37.993Z,102779.16
2023-04-02T18:12:19.420Z,102780.41
2023-04-02T18:15:11.727Z,102779.53
2023-04-02T18:17:52.498Z,102787.72
2023-04-02T18:20:56.718Z,102797.41
2023-04-02T18:23:50.683Z,102798.66
2023-04-02T18:26:35.429Z,102820.28
2023-04-02T18:29:35.650Z,102811.44
2023-04-02T18:32:20.654Z,102820.09
2023-04-02T18:34:56.937Z,102825.63
2023-04-02T18:37:36.770Z,102820.69
2023-04-02T18:40:22.121Z,102833.13
2023-04-02T18:42:48.965Z,102829.91
2023-04-02T18:45:22.239Z,102834.31
2023-04-02T18:47:57.515Z,102840.31
2023-04-02T18:50:36.372Z,102838.41
2023-04-02T18:53:12.605Z,102836.94
2023-04-02T18:55:55.551Z,102854.63
2023-04-02T18:58:32.627Z,102850.47
2023-04-02T19:01:00.629Z,102856.47
2023-04-02T19:03:32.703Z,102866.09
2023-04-02T19:06:07.628Z,102872.03
2023-04-02T19:08:51.056Z,102873.66
2023-04-02T19:11:20.358Z,102883.81
2023-04-02T19:13:48.944Z,102893.09
2023-04-02T19:16:37.172Z,102884.78
2023-04-02T19:19:22.464Z,102895.31
2023-04-02T19:22:12.413Z,102899.50
2023-04-02T19:25:00.275Z,102897.66
2023-04-02T19:27:55.036Z,102910.72
2023-04-02T19:30:24.657Z,102907.19
2023-04-02T19:33:04.521Z,102909.72
2023-04-02T19:35:41.532Z,102905.16
2023-04-02T19:38:33.366Z,102906.28
2023-04-02T19:41:32.056Z,102910.19
2023-04-02T19:43:58.746Z,102912.16
2023-04-02T19:46:26.494Z,102924.91
2023-04-02T19:49:06.354Z,102920.53
2023-04-02T19:51:33.729Z,102919.00
2023-04-02T19:54:00.900Z,102917.69
2023-04-02T19:56:28.165Z,102926.41
2023-04-02T19:58:56.634Z,102926.72
2023-04-02T20:01:23.391Z,102930.03
2023-04-02T20:03:49.906Z,102931.13
2023-04-02T20:06:16.420Z,102941.41
2023-04-02T20:08:43.007Z,102928.75
2023-04-02T20:11:09.732Z,102933.63
2023-04-02T20:13:36.280Z,102928.22
2023-04-02T20:16:04.753Z,102935.53
2023-04-02T20:18:32.017Z,102938.84
2023-04-02T20:20:58.520Z,102942.41
2023-04-02T20:23:25.348Z,102946.78
2023-04-02T20:25:56.093Z,102941.38
2023-04-02T20:28:24.039Z,102944.09
2023-04-02T20:30:51.217Z,102958.69
2023-04-02T20:33:19.343Z,102955.16
2023-04-02T20:35:45.923Z,102958.94
2023-04-02T20:38:12.526Z,102959.00
2023-04-02T20:40:41.418Z,102969.25
2023-04-02T20:43:11.074Z,102967.91
2023-04-02T20:45:37.993Z,102974.47
2023-04-02T20:48:05.122Z,102976.03
2023-04-02T20:50:31.683Z,102977.97
2023-04-02T20:52:59.991Z,102986.34
2023-04-02T20:55:26.473Z,102993.88
2023-04-02T20:57:53.602Z,102988.47
2023-04-02T21:00:20.935Z,102996.34
2023-04-02T21:02:47.415Z,102994.72
2023-04-02T21:05:14.031Z,102997.72
2023-04-02T21:07:40.531Z,102997.47
2023-04-02T21:10:07.448Z,103002.84
2023-04-02T21:12:33.904Z,103007.16
2023-04-02T21:15:02.800Z,103006.63
2023-04-02T21:17:29.668Z,103009.88
2023-04-02T21:19:56.137Z,103012.63
2023-04-02T21:22:22.802Z,103019.09
2023-04-02T21:24:49.376Z,103011.84
2023-04-02T21:27:16.749Z,103024.81
2023-04-02T21:29:43.256Z,103026.47
2023-04-02T21:32:20.814Z,103028.34
2023-04-02T21:34:48.064Z,103032.41
2023-04-02T21:37:14.623Z,103038.63
2023-04-02T21:39:41.434Z,103038.66
2023-04-02T21:42:07.959Z,103034.06
2023-04-02T21:44:34.416Z,103036.22
2023-04-02T21:47:01.023Z,103028.38
2023-04-02T21:49:27.753Z,103030.25
2023-04-02T21:51:54.300Z,103037.56
2023-04-02T21:54:21.170Z,103031.34
2023-04-02T21:56:47.944Z,103037.00
2023-04-02T21:59:16.516Z,103035.41
2023-04-02T22:01:48.686Z,103038.34
2023-04-02T22:04:23.429Z,103023.25
2023-04-02T22:06:50.930Z,103040.53
2023-04-02T22:09:23.400Z,103038.63
2023-04-02T22:11:54.140Z,103037.84
2023-04-02T22:14:21.346Z,103030.25
2023-04-02T22:16:47.831Z,103031.38
2023-04-02T22:19:15.908Z,103036.47
2023-04-02T22:21:42.888Z,103035.38
2023-04-02T22:24:13.805Z,103037.00
2023-04-02T22:26:41.274Z,103034.31
2023-04-02T22:29:08.394Z,103043.47
2023-04-02T22:31:35.243Z,103041.31
2023-04-02T22:34:03.616Z,103042.38
2023-04-02T22:36:30.751Z,103033.75
2023-04-02T22:38:58.936Z,103035.09
2023-04-02T22:41:28.107Z,103035.06
2023-04-02T22:43:56.856Z,103042.63
2023-04-02T22:46:24.126Z,103045.84
2023-04-02T22:48:50.804Z,103042.63
2023-04-02T22:51:20.813Z,103049.09
2023-04-02T22:53:48.741Z,103042.34
2023-04-02T22:56:21.914Z,103045.28
2023-04-02T22:58:49.153Z,103055.50
2023-04-02T23:01:23.226Z,103057.41
2023-04-02T23:03:49.901Z,103056.06
2023-04-02T23:06:18.326Z,103061.16
2023-04-02T23:08:46.080Z,103047.66
2023-04-02T23:11:22.224Z,103060.63
2023-04-02T23:13:50.828Z,103065.44
2023-04-02T23:16:18.555Z,103061.41
2023-04-02T23:18:48.112Z,103071.66
2023-04-02T23:21:16.295Z,103063.25
2023-04-02T23:23:43.937Z,103052.69
2023-04-02T23:26:29.054Z,103067.78
2023-04-02T23:28:55.619Z,103067.56
2023-04-02T23:31:23.405Z,103066.72
2023-04-02T23:33:51.783Z,103071.28
2023-04-02T23:36:27.752Z,103065.63
2023-04-02T23:38:55.995Z,103074.47
2023-04-02T23:41:24.950Z,103073.41
2023-04-02T23:43:51.750Z,103069.84
2023-04-02T23:46:19.257Z,103077.13
2023-04-02T23:48:46.677Z,103066.28
2023-04-02T23:51:13.915Z,103063.31
2023-04-02T23:53:40.498Z,103070.81
2023-04-02T23:56:07.250Z,103072.47
2023-04-02T23:58:33.740Z,103076.75
